GRL771 BGKK-BIKF
Flight info
| Callsign | GRL771 |
|---|---|
| Flight time | 1h 36m |
| Altitude | 27000 |
| Route | NASOP UT592 NONRO DCT INGAN INGAN3H |
| Aircraft | B350/L-SBGRW/S |
Departure
| Time | 2026-04-22 14:54 |
|---|---|
| Airport | Kulusuk Airport (BGKK) |
Arrival
| Time | 2026-04-22 16:30 |
|---|---|
| Airport | Keflavik International Airport (BIKF) |
| Time | Latitude | Longitude | Altitude | Speed | Heading |
|---|---|---|---|---|---|
| 2026-04-22 14:44 | 65.57419 | -37.13470 | 116 ft | 0 kts | 262° |
| 2026-04-22 14:51 | 65.57398 | -37.13516 | 115 ft | 0 kts | 178° |
| 2026-04-22 14:51 | 65.57394 | -37.13515 | 114 ft | 7 kts | 175° |
| 2026-04-22 14:51 | 65.57287 | -37.13607 | 117 ft | 32 kts | 266° |
| 2026-04-22 14:52 | 65.57270 | -37.13952 | 121 ft | 8 kts | 242° |
| 2026-04-22 14:52 | 65.57242 | -37.13954 | 118 ft | 5 kts | 72° |
| 2026-04-22 14:52 | 65.57263 | -37.13819 | 116 ft | 0 kts | 79° |
| 2026-04-22 14:53 | 65.57284 | -37.13544 | 117 ft | 58 kts | 84° |
| 2026-04-22 14:53 | 65.57328 | -37.11933 | 133 ft | 130 kts | 88° |
| 2026-04-22 14:53 | 65.57512 | -37.09573 | 598 ft | 148 kts | 81° |
| 2026-04-22 14:54 | 65.57753 | -37.07170 | 1401 ft | 149 kts | 65° |
| 2026-04-22 14:54 | 65.58291 | -37.04858 | 1890 ft | 168 kts | 60° |
| 2026-04-22 14:54 | 65.58861 | -37.02407 | 2671 ft | 168 kts | 54° |
| 2026-04-22 14:54 | 65.59753 | -37.00395 | 2969 ft | 186 kts | 40° |
| 2026-04-22 14:55 | 65.60274 | -36.97408 | 3311 ft | 206 kts | 83° |
| 2026-04-22 14:55 | 65.60414 | -36.93855 | 3641 ft | 218 kts | 86° |
| 2026-04-22 14:55 | 65.60505 | -36.90126 | 3966 ft | 225 kts | 88° |
| 2026-04-22 14:55 | 65.60568 | -36.86312 | 4263 ft | 229 kts | 89° |
| 2026-04-22 14:56 | 65.60606 | -36.82423 | 4576 ft | 233 kts | 90° |
| 2026-04-22 14:56 | 65.60616 | -36.78481 | 4890 ft | 235 kts | 91° |
| 2026-04-22 14:56 | 65.60596 | -36.74510 | 5202 ft | 237 kts | 92° |
| 2026-04-22 14:56 | 65.60549 | -36.70528 | 5514 ft | 237 kts | 93° |
| 2026-04-22 14:57 | 65.60475 | -36.66549 | 5872 ft | 236 kts | 94° |
| 2026-04-22 14:57 | 65.60376 | -36.62587 | 6229 ft | 236 kts | 95° |
| 2026-04-22 14:57 | 65.60253 | -36.58676 | 6584 ft | 236 kts | 96° |
| 2026-04-22 14:57 | 65.60103 | -36.54682 | 6944 ft | 236 kts | 96° |
| 2026-04-22 14:58 | 65.59932 | -36.50783 | 7275 ft | 236 kts | 97° |
| 2026-04-22 14:58 | 65.59736 | -36.46851 | 7609 ft | 236 kts | 98° |
| 2026-04-22 14:58 | 65.59518 | -36.42931 | 7952 ft | 235 kts | 99° |
| 2026-04-22 14:58 | 65.59276 | -36.39020 | 8293 ft | 235 kts | 99° |
| 2026-04-22 14:59 | 65.59012 | -36.35110 | 8643 ft | 235 kts | 100° |
| 2026-04-22 14:59 | 65.58727 | -36.31218 | 8994 ft | 235 kts | 101° |
| 2026-04-22 14:59 | 65.58418 | -36.27327 | 9356 ft | 235 kts | 102° |
| 2026-04-22 14:59 | 65.58090 | -36.23450 | 9710 ft | 235 kts | 102° |
| 2026-04-22 15:00 | 65.57741 | -36.19588 | 10083 ft | 235 kts | 103° |
| 2026-04-22 15:00 | 65.57373 | -36.15736 | 10431 ft | 235 kts | 103° |
| 2026-04-22 15:00 | 65.56984 | -36.11888 | 10765 ft | 236 kts | 104° |
| 2026-04-22 15:00 | 65.56576 | -36.08050 | 11103 ft | 236 kts | 105° |
| 2026-04-22 15:01 | 65.56149 | -36.04216 | 11447 ft | 237 kts | 105° |
| 2026-04-22 15:01 | 65.55703 | -36.00386 | 11789 ft | 237 kts | 106° |
| 2026-04-22 15:01 | 65.55240 | -35.96563 | 12132 ft | 238 kts | 107° |
| 2026-04-22 15:01 | 65.54756 | -35.92730 | 12490 ft | 238 kts | 108° |
| 2026-04-22 15:02 | 65.54256 | -35.88913 | 12846 ft | 239 kts | 108° |
| 2026-04-22 15:02 | 65.53737 | -35.85100 | 13203 ft | 240 kts | 109° |
| 2026-04-22 15:02 | 65.53194 | -35.81232 | 13563 ft | 241 kts | 109° |
| 2026-04-22 15:02 | 65.52635 | -35.77384 | 13880 ft | 244 kts | 110° |
| 2026-04-22 15:03 | 65.52052 | -35.73521 | 14194 ft | 246 kts | 110° |
| 2026-04-22 15:03 | 65.51450 | -35.69644 | 14476 ft | 248 kts | 111° |
| 2026-04-22 15:03 | 65.50826 | -35.65738 | 14746 ft | 252 kts | 111° |
| 2026-04-22 15:03 | 65.50194 | -35.61832 | 15033 ft | 255 kts | 111° |
| 2026-04-22 15:04 | 65.49531 | -35.57847 | 15325 ft | 257 kts | 112° |
| 2026-04-22 15:04 | 65.48843 | -35.53842 | 15621 ft | 259 kts | 112° |
| 2026-04-22 15:04 | 65.48125 | -35.49795 | 15927 ft | 260 kts | 113° |
| 2026-04-22 15:04 | 65.47403 | -35.45858 | 16227 ft | 261 kts | 113° |
| 2026-04-22 15:05 | 65.46638 | -35.41821 | 16532 ft | 261 kts | 114° |
| 2026-04-22 15:05 | 65.45876 | -35.37925 | 16835 ft | 262 kts | 115° |
| 2026-04-22 15:05 | 65.45069 | -35.33938 | 17150 ft | 262 kts | 115° |
| 2026-04-22 15:05 | 65.44266 | -35.30085 | 17460 ft | 261 kts | 116° |
| 2026-04-22 15:06 | 65.43702 | -35.27458 | 17671 ft | 261 kts | 116° |
| 2026-04-22 15:06 | 65.42578 | -35.22341 | 18096 ft | 261 kts | 117° |
| 2026-04-22 15:06 | 65.41705 | -35.18509 | 18420 ft | 261 kts | 117° |
| 2026-04-22 15:06 | 65.40820 | -35.14726 | 18736 ft | 261 kts | 118° |
| 2026-04-22 15:07 | 65.39914 | -35.10949 | 19023 ft | 260 kts | 118° |
| 2026-04-22 15:07 | 65.38996 | -35.07209 | 19299 ft | 260 kts | 119° |
| 2026-04-22 15:07 | 65.38059 | -35.03486 | 19586 ft | 260 kts | 119° |
| 2026-04-22 15:07 | 65.37108 | -34.99794 | 19874 ft | 261 kts | 120° |
| 2026-04-22 15:08 | 65.36144 | -34.96137 | 20191 ft | 260 kts | 120° |
| 2026-04-22 15:08 | 65.35496 | -34.93721 | 20401 ft | 259 kts | 120° |
| 2026-04-22 15:08 | 65.34516 | -34.90106 | 20722 ft | 259 kts | 121° |
| 2026-04-22 15:08 | 65.33525 | -34.86509 | 21047 ft | 259 kts | 121° |
| 2026-04-22 15:09 | 65.32517 | -34.82923 | 21373 ft | 259 kts | 121° |
| 2026-04-22 15:09 | 65.31502 | -34.79371 | 21706 ft | 258 kts | 121° |
| 2026-04-22 15:09 | 65.30476 | -34.75840 | 22043 ft | 258 kts | 122° |
| 2026-04-22 15:09 | 65.29437 | -34.72326 | 22380 ft | 258 kts | 122° |
| 2026-04-22 15:10 | 65.28391 | -34.68833 | 22725 ft | 258 kts | 122° |
| 2026-04-22 15:10 | 65.27335 | -34.65353 | 23074 ft | 258 kts | 123° |
| 2026-04-22 15:10 | 65.26274 | -34.61904 | 23424 ft | 258 kts | 123° |
| 2026-04-22 15:10 | 65.25202 | -34.58463 | 23783 ft | 258 kts | 123° |
| 2026-04-22 15:11 | 65.24122 | -34.55046 | 24112 ft | 258 kts | 123° |
| 2026-04-22 15:11 | 65.23036 | -34.51649 | 24413 ft | 257 kts | 124° |
| 2026-04-22 15:11 | 65.21951 | -34.48315 | 24711 ft | 257 kts | 124° |
| 2026-04-22 15:11 | 65.20851 | -34.44968 | 25017 ft | 256 kts | 124° |
| 2026-04-22 15:12 | 65.19742 | -34.41636 | 25328 ft | 256 kts | 124° |
| 2026-04-22 15:12 | 65.18630 | -34.38333 | 25632 ft | 255 kts | 124° |
| 2026-04-22 15:12 | 65.17519 | -34.35065 | 25959 ft | 254 kts | 125° |
| 2026-04-22 15:12 | 65.16403 | -34.31807 | 26279 ft | 253 kts | 125° |
| 2026-04-22 15:13 | 65.15288 | -34.28584 | 26599 ft | 252 kts | 125° |
| 2026-04-22 15:13 | 65.14161 | -34.25353 | 26799 ft | 257 kts | 126° |
| 2026-04-22 15:13 | 65.12992 | -34.22039 | 26888 ft | 265 kts | 126° |
| 2026-04-22 15:13 | 65.11774 | -34.18645 | 26932 ft | 274 kts | 127° |
| 2026-04-22 15:14 | 65.10507 | -34.15172 | 26957 ft | 282 kts | 127° |
| 2026-04-22 15:14 | 65.09192 | -34.11639 | 26967 ft | 289 kts | 128° |
| 2026-04-22 15:14 | 65.07830 | -34.08057 | 26970 ft | 294 kts | 129° |
| 2026-04-22 15:14 | 65.06433 | -34.04458 | 26972 ft | 299 kts | 129° |
| 2026-04-22 15:15 | 65.04998 | -34.00841 | 26976 ft | 302 kts | 130° |
| 2026-04-22 15:15 | 65.03537 | -33.97237 | 26979 ft | 305 kts | 131° |
| 2026-04-22 15:15 | 65.02046 | -33.93641 | 26980 ft | 307 kts | 131° |
| 2026-04-22 15:15 | 65.00525 | -33.90057 | 26981 ft | 309 kts | 132° |
| 2026-04-22 15:16 | 64.98983 | -33.86509 | 26986 ft | 310 kts | 133° |
| 2026-04-22 15:16 | 64.97415 | -33.82990 | 26988 ft | 311 kts | 134° |
| 2026-04-22 15:16 | 64.95845 | -33.79551 | 26989 ft | 312 kts | 134° |
| 2026-04-22 15:16 | 64.94237 | -33.76114 | 26990 ft | 313 kts | 135° |
| 2026-04-22 15:17 | 64.92608 | -33.72720 | 26994 ft | 313 kts | 136° |
| 2026-04-22 15:17 | 64.91101 | -33.69050 | 26985 ft | 309 kts | 123° |
| 2026-04-22 15:17 | 64.90036 | -33.64738 | 26991 ft | 302 kts | 108° |
| 2026-04-22 15:17 | 64.89396 | -33.60067 | 26997 ft | 298 kts | 100° |
| 2026-04-22 15:18 | 64.88901 | -33.55336 | 26997 ft | 297 kts | 98° |
| 2026-04-22 15:18 | 64.88462 | -33.50592 | 26998 ft | 297 kts | 97° |
| 2026-04-22 15:18 | 64.88077 | -33.45827 | 26995 ft | 296 kts | 95° |
| 2026-04-22 15:18 | 64.87747 | -33.41048 | 26999 ft | 295 kts | 94° |
| 2026-04-22 15:19 | 64.87473 | -33.36273 | 26998 ft | 295 kts | 92° |
| 2026-04-22 15:19 | 64.87254 | -33.31481 | 26997 ft | 294 kts | 91° |
| 2026-04-22 15:19 | 64.87087 | -33.26630 | 26995 ft | 293 kts | 89° |
| 2026-04-22 15:19 | 64.86979 | -33.21849 | 27000 ft | 292 kts | 88° |
| 2026-04-22 15:20 | 64.86926 | -33.17079 | 27000 ft | 292 kts | 86° |
| 2026-04-22 15:20 | 64.86927 | -33.12313 | 27000 ft | 291 kts | 85° |
| 2026-04-22 15:20 | 64.86983 | -33.07557 | 27000 ft | 290 kts | 83° |
| 2026-04-22 15:20 | 64.87094 | -33.02822 | 26999 ft | 290 kts | 82° |
| 2026-04-22 15:21 | 64.87260 | -32.98107 | 27002 ft | 289 kts | 80° |
| 2026-04-22 15:21 | 64.87480 | -32.93415 | 27003 ft | 288 kts | 79° |
| 2026-04-22 15:21 | 64.87750 | -32.88806 | 27000 ft | 288 kts | 77° |
| 2026-04-22 15:21 | 64.88081 | -32.84108 | 26999 ft | 287 kts | 76° |
| 2026-04-22 15:22 | 64.88461 | -32.79510 | 27002 ft | 286 kts | 74° |
| 2026-04-22 15:22 | 64.88896 | -32.74933 | 26996 ft | 286 kts | 72° |
| 2026-04-22 15:22 | 64.89381 | -32.70411 | 26998 ft | 285 kts | 71° |
| 2026-04-22 15:22 | 64.89919 | -32.65921 | 26998 ft | 284 kts | 70° |
| 2026-04-22 15:23 | 64.90507 | -32.61482 | 26997 ft | 284 kts | 68° |
| 2026-04-22 15:23 | 64.91147 | -32.57087 | 26996 ft | 283 kts | 66° |
| 2026-04-22 15:23 | 64.91835 | -32.52749 | 26995 ft | 282 kts | 65° |
| 2026-04-22 15:23 | 64.92572 | -32.48473 | 26999 ft | 282 kts | 63° |
| 2026-04-22 15:24 | 64.93360 | -32.44247 | 26996 ft | 281 kts | 62° |
| 2026-04-22 15:24 | 64.94194 | -32.40085 | 26996 ft | 280 kts | 60° |
| 2026-04-22 15:24 | 64.95076 | -32.35985 | 26997 ft | 280 kts | 59° |
| 2026-04-22 15:24 | 64.96007 | -32.31944 | 26991 ft | 279 kts | 57° |
| 2026-04-22 15:25 | 64.96981 | -32.27986 | 26995 ft | 279 kts | 56° |
| 2026-04-22 15:25 | 64.98002 | -32.24096 | 26996 ft | 278 kts | 54° |
| 2026-04-22 15:25 | 64.99067 | -32.20281 | 26994 ft | 278 kts | 53° |
| 2026-04-22 15:25 | 65.00176 | -32.16544 | 26988 ft | 277 kts | 51° |
| 2026-04-22 15:26 | 65.01328 | -32.12884 | 26990 ft | 277 kts | 50° |
| 2026-04-22 15:26 | 65.02495 | -32.09342 | 26986 ft | 277 kts | 49° |
| 2026-04-22 15:26 | 65.03708 | -32.05787 | 26991 ft | 277 kts | 48° |
| 2026-04-22 15:26 | 65.04949 | -32.02303 | 26985 ft | 276 kts | 47° |
| 2026-04-22 15:27 | 65.06216 | -31.98891 | 26990 ft | 276 kts | 46° |
| 2026-04-22 15:27 | 65.07517 | -31.95541 | 26991 ft | 276 kts | 44° |
| 2026-04-22 15:27 | 65.08731 | -31.92039 | 27012 ft | 279 kts | 60° |
| 2026-04-22 15:27 | 65.09068 | -31.87457 | 27007 ft | 292 kts | 90° |
| 2026-04-22 15:28 | 65.08762 | -31.82660 | 26977 ft | 297 kts | 98° |
| 2026-04-22 15:28 | 65.08160 | -31.77937 | 26981 ft | 301 kts | 107° |
| 2026-04-22 15:28 | 65.07437 | -31.73299 | 26973 ft | 299 kts | 102° |
| 2026-04-22 15:28 | 65.06952 | -31.68538 | 26987 ft | 295 kts | 95° |
| 2026-04-22 15:29 | 65.06703 | -31.63732 | 26984 ft | 293 kts | 90° |
| 2026-04-22 15:29 | 65.06592 | -31.58857 | 26991 ft | 292 kts | 87° |
| 2026-04-22 15:29 | 65.06566 | -31.54067 | 26994 ft | 291 kts | 85° |
| 2026-04-22 15:30 | 65.06636 | -31.44498 | 26993 ft | 290 kts | 83° |
| 2026-04-22 15:30 | 65.06721 | -31.39742 | 26993 ft | 289 kts | 83° |
| 2026-04-22 15:30 | 65.06817 | -31.34974 | 26997 ft | 289 kts | 83° |
| 2026-04-22 15:30 | 65.06917 | -31.30218 | 26997 ft | 289 kts | 82° |
| 2026-04-22 15:31 | 65.07022 | -31.25449 | 26995 ft | 289 kts | 82° |
| 2026-04-22 15:31 | 65.07130 | -31.20694 | 26994 ft | 289 kts | 82° |
| 2026-04-22 15:31 | 65.07238 | -31.16004 | 26996 ft | 289 kts | 82° |
| 2026-04-22 15:31 | 65.07353 | -31.11195 | 26996 ft | 289 kts | 82° |
| 2026-04-22 15:32 | 65.07469 | -31.06445 | 26996 ft | 289 kts | 82° |
| 2026-04-22 15:32 | 65.07588 | -31.01686 | 26998 ft | 289 kts | 82° |
| 2026-04-22 15:32 | 65.07707 | -30.97008 | 26997 ft | 288 kts | 82° |
| 2026-04-22 15:32 | 65.07831 | -30.92254 | 27000 ft | 288 kts | 82° |
| 2026-04-22 15:33 | 65.07956 | -30.87517 | 26997 ft | 288 kts | 82° |
| 2026-04-22 15:33 | 65.08086 | -30.82715 | 26998 ft | 288 kts | 82° |
| 2026-04-22 15:33 | 65.08216 | -30.78040 | 26998 ft | 288 kts | 82° |
| 2026-04-22 15:33 | 65.08350 | -30.73304 | 26995 ft | 288 kts | 82° |
| 2026-04-22 15:34 | 65.08487 | -30.68563 | 26995 ft | 288 kts | 82° |
| 2026-04-22 15:34 | 65.08625 | -30.63837 | 26997 ft | 288 kts | 82° |
| 2026-04-22 15:34 | 65.08767 | -30.59040 | 26998 ft | 287 kts | 81° |
| 2026-04-22 15:34 | 65.08910 | -30.54319 | 26999 ft | 287 kts | 81° |
| 2026-04-22 15:35 | 65.09006 | -30.51191 | 26998 ft | 287 kts | 81° |
| 2026-04-22 15:35 | 65.09202 | -30.44923 | 27002 ft | 287 kts | 81° |
| 2026-04-22 15:35 | 65.09351 | -30.40202 | 26998 ft | 287 kts | 81° |
| 2026-04-22 15:35 | 65.09503 | -30.35482 | 27005 ft | 287 kts | 81° |
| 2026-04-22 15:36 | 65.09657 | -30.30769 | 27003 ft | 287 kts | 81° |
| 2026-04-22 15:36 | 65.09815 | -30.26041 | 27004 ft | 287 kts | 81° |
| 2026-04-22 15:36 | 65.09976 | -30.21314 | 27004 ft | 287 kts | 81° |
| 2026-04-22 15:36 | 65.10139 | -30.16599 | 27002 ft | 287 kts | 81° |
| 2026-04-22 15:37 | 65.10306 | -30.11874 | 27005 ft | 287 kts | 81° |
| 2026-04-22 15:37 | 65.10475 | -30.07160 | 27005 ft | 287 kts | 81° |
| 2026-04-22 15:37 | 65.10646 | -30.02442 | 27009 ft | 287 kts | 81° |
| 2026-04-22 15:37 | 65.10819 | -29.97725 | 27008 ft | 287 kts | 81° |
| 2026-04-22 15:38 | 65.10995 | -29.93009 | 27004 ft | 287 kts | 81° |
| 2026-04-22 15:38 | 65.11346 | -29.83585 | 27009 ft | 287 kts | 83° |
| 2026-04-22 15:38 | 65.11137 | -29.78815 | 27008 ft | 293 kts | 96° |
| 2026-04-22 15:39 | 65.10724 | -29.74064 | 27004 ft | 294 kts | 98° |
| 2026-04-22 15:39 | 65.10263 | -29.69341 | 27004 ft | 295 kts | 99° |
| 2026-04-22 15:39 | 65.09780 | -29.64614 | 27008 ft | 295 kts | 99° |
| 2026-04-22 15:39 | 65.09285 | -29.59888 | 27009 ft | 295 kts | 99° |
| 2026-04-22 15:40 | 65.08784 | -29.55160 | 27008 ft | 295 kts | 99° |
| 2026-04-22 15:40 | 65.08280 | -29.50445 | 27006 ft | 295 kts | 100° |
| 2026-04-22 15:40 | 65.07770 | -29.45733 | 27009 ft | 295 kts | 100° |
| 2026-04-22 15:40 | 65.07255 | -29.41025 | 27010 ft | 295 kts | 100° |
| 2026-04-22 15:41 | 65.06734 | -29.36315 | 27011 ft | 295 kts | 100° |
| 2026-04-22 15:41 | 65.06207 | -29.31607 | 27017 ft | 295 kts | 101° |
| 2026-04-22 15:41 | 65.05677 | -29.26912 | 27015 ft | 295 kts | 101° |
| 2026-04-22 15:41 | 65.05142 | -29.22209 | 27014 ft | 295 kts | 101° |
| 2026-04-22 15:42 | 65.04599 | -29.17499 | 27015 ft | 296 kts | 101° |
| 2026-04-22 15:42 | 65.04052 | -29.12807 | 27014 ft | 296 kts | 101° |
| 2026-04-22 15:42 | 65.03500 | -29.08117 | 27014 ft | 296 kts | 101° |
| 2026-04-22 15:42 | 65.02946 | -29.03436 | 27016 ft | 296 kts | 102° |
| 2026-04-22 15:43 | 65.02387 | -28.98745 | 27018 ft | 296 kts | 102° |
| 2026-04-22 15:43 | 65.01822 | -28.94052 | 27019 ft | 296 kts | 102° |
| 2026-04-22 15:43 | 65.01255 | -28.89367 | 27020 ft | 296 kts | 102° |
| 2026-04-22 15:43 | 65.00687 | -28.84749 | 27021 ft | 296 kts | 102° |
| 2026-04-22 15:44 | 65.00295 | -28.81589 | 27021 ft | 296 kts | 102° |
| 2026-04-22 15:44 | 64.99522 | -28.75409 | 27021 ft | 296 kts | 103° |
| 2026-04-22 15:44 | 64.99123 | -28.72249 | 27020 ft | 296 kts | 103° |
| 2026-04-22 15:44 | 64.98531 | -28.67593 | 27019 ft | 296 kts | 103° |
| 2026-04-22 15:45 | 64.97932 | -28.62938 | 27021 ft | 296 kts | 103° |
| 2026-04-22 15:45 | 64.97330 | -28.58289 | 27022 ft | 296 kts | 104° |
| 2026-04-22 15:45 | 64.96719 | -28.53642 | 27023 ft | 296 kts | 104° |
| 2026-04-22 15:45 | 64.96102 | -28.48999 | 27023 ft | 296 kts | 104° |
| 2026-04-22 15:46 | 64.95479 | -28.44363 | 27024 ft | 296 kts | 104° |
| 2026-04-22 15:46 | 64.94851 | -28.39741 | 27024 ft | 296 kts | 105° |
| 2026-04-22 15:46 | 64.94215 | -28.35123 | 27027 ft | 296 kts | 105° |
| 2026-04-22 15:46 | 64.93574 | -28.30507 | 27029 ft | 295 kts | 105° |
| 2026-04-22 15:47 | 64.92931 | -28.25914 | 27028 ft | 295 kts | 105° |
| 2026-04-22 15:47 | 64.92280 | -28.21318 | 27027 ft | 295 kts | 106° |
| 2026-04-22 15:47 | 64.91624 | -28.16736 | 27030 ft | 295 kts | 106° |
| 2026-04-22 15:47 | 64.90967 | -28.12161 | 27033 ft | 295 kts | 106° |
| 2026-04-22 15:48 | 64.90304 | -28.07582 | 27031 ft | 295 kts | 106° |
| 2026-04-22 15:48 | 64.89638 | -28.03022 | 27037 ft | 294 kts | 107° |
| 2026-04-22 15:48 | 64.88967 | -27.98472 | 27034 ft | 294 kts | 107° |
| 2026-04-22 15:48 | 64.88290 | -27.93936 | 27032 ft | 294 kts | 107° |
| 2026-04-22 15:49 | 64.87615 | -27.89455 | 27035 ft | 294 kts | 108° |
| 2026-04-22 15:49 | 64.86928 | -27.84927 | 27035 ft | 293 kts | 108° |
| 2026-04-22 15:49 | 64.86235 | -27.80412 | 27036 ft | 293 kts | 108° |
| 2026-04-22 15:49 | 64.85538 | -27.75905 | 27035 ft | 293 kts | 108° |
| 2026-04-22 15:50 | 64.84836 | -27.71408 | 27036 ft | 293 kts | 108° |
| 2026-04-22 15:50 | 64.84124 | -27.66911 | 27038 ft | 293 kts | 109° |
| 2026-04-22 15:50 | 64.83409 | -27.62437 | 27038 ft | 293 kts | 109° |
| 2026-04-22 15:50 | 64.82687 | -27.57963 | 27040 ft | 293 kts | 109° |
| 2026-04-22 15:51 | 64.81961 | -27.53497 | 27039 ft | 292 kts | 109° |
| 2026-04-22 15:51 | 64.81230 | -27.49044 | 27041 ft | 292 kts | 109° |
| 2026-04-22 15:51 | 64.80492 | -27.44580 | 27041 ft | 292 kts | 109° |
| 2026-04-22 15:51 | 64.79756 | -27.40155 | 27042 ft | 292 kts | 109° |
| 2026-04-22 15:52 | 64.79019 | -27.35774 | 27043 ft | 291 kts | 109° |
| 2026-04-22 15:52 | 64.78271 | -27.31364 | 27045 ft | 291 kts | 109° |
| 2026-04-22 15:52 | 64.77516 | -27.26959 | 27047 ft | 291 kts | 110° |
| 2026-04-22 15:52 | 64.76754 | -27.22560 | 27044 ft | 291 kts | 110° |
| 2026-04-22 15:53 | 64.75988 | -27.18169 | 27051 ft | 291 kts | 110° |
| 2026-04-22 15:53 | 64.75217 | -27.13793 | 27047 ft | 290 kts | 110° |
| 2026-04-22 15:53 | 64.74440 | -27.09428 | 27046 ft | 290 kts | 110° |
| 2026-04-22 15:53 | 64.73658 | -27.05072 | 27050 ft | 290 kts | 110° |
| 2026-04-22 15:54 | 64.72868 | -27.00718 | 27049 ft | 290 kts | 111° |
| 2026-04-22 15:54 | 64.72074 | -26.96383 | 27050 ft | 290 kts | 111° |
| 2026-04-22 15:54 | 64.71276 | -26.92063 | 27056 ft | 290 kts | 111° |
| 2026-04-22 15:54 | 64.70468 | -26.87744 | 27052 ft | 289 kts | 111° |
| 2026-04-22 15:55 | 64.69655 | -26.83435 | 27056 ft | 289 kts | 111° |
| 2026-04-22 15:55 | 64.68838 | -26.79136 | 27054 ft | 289 kts | 112° |
| 2026-04-22 15:55 | 64.68016 | -26.74850 | 27051 ft | 289 kts | 112° |
| 2026-04-22 15:55 | 64.67189 | -26.70575 | 27059 ft | 288 kts | 112° |
| 2026-04-22 15:56 | 64.66358 | -26.66322 | 27052 ft | 288 kts | 112° |
| 2026-04-22 15:56 | 64.65520 | -26.62077 | 27055 ft | 288 kts | 113° |
| 2026-04-22 15:56 | 64.64678 | -26.57848 | 27060 ft | 288 kts | 113° |
| 2026-04-22 15:56 | 64.63828 | -26.53622 | 27060 ft | 287 kts | 113° |
| 2026-04-22 15:57 | 64.62973 | -26.49411 | 27053 ft | 287 kts | 114° |
| 2026-04-22 15:57 | 64.62112 | -26.45206 | 27054 ft | 287 kts | 114° |
| 2026-04-22 15:57 | 64.61247 | -26.41022 | 27053 ft | 287 kts | 114° |
| 2026-04-22 15:57 | 64.60373 | -26.36832 | 27059 ft | 286 kts | 114° |
| 2026-04-22 15:58 | 64.59498 | -26.32670 | 27059 ft | 286 kts | 115° |
| 2026-04-22 15:58 | 64.58618 | -26.28522 | 27060 ft | 286 kts | 115° |
| 2026-04-22 15:58 | 64.57731 | -26.24383 | 27055 ft | 286 kts | 115° |
| 2026-04-22 15:58 | 64.56840 | -26.20256 | 27060 ft | 285 kts | 115° |
| 2026-04-22 15:59 | 64.55943 | -26.16139 | 27060 ft | 285 kts | 116° |
| 2026-04-22 15:59 | 64.55042 | -26.12041 | 27068 ft | 284 kts | 116° |
| 2026-04-22 15:59 | 64.54135 | -26.07956 | 27065 ft | 284 kts | 116° |
| 2026-04-22 15:59 | 64.53224 | -26.03883 | 27062 ft | 284 kts | 116° |
| 2026-04-22 16:00 | 64.52512 | -25.99624 | 27064 ft | 282 kts | 105° |
| 2026-04-22 16:00 | 64.52023 | -25.95150 | 27064 ft | 282 kts | 103° |
| 2026-04-22 16:00 | 64.51600 | -25.90701 | 27064 ft | 282 kts | 102° |
| 2026-04-22 16:00 | 64.51202 | -25.86254 | 27067 ft | 282 kts | 102° |
| 2026-04-22 16:01 | 64.50817 | -25.81805 | 27064 ft | 281 kts | 101° |
| 2026-04-22 16:01 | 64.50437 | -25.77346 | 27068 ft | 281 kts | 101° |
| 2026-04-22 16:01 | 64.50061 | -25.72895 | 27078 ft | 281 kts | 101° |
| 2026-04-22 16:01 | 64.49688 | -25.68438 | 27077 ft | 281 kts | 101° |
| 2026-04-22 16:02 | 64.49318 | -25.63988 | 27067 ft | 281 kts | 101° |
| 2026-04-22 16:02 | 64.48952 | -25.59537 | 27071 ft | 281 kts | 101° |
| 2026-04-22 16:02 | 64.48591 | -25.55081 | 27072 ft | 281 kts | 101° |
| 2026-04-22 16:02 | 64.48234 | -25.50632 | 27071 ft | 281 kts | 101° |
| 2026-04-22 16:03 | 64.47883 | -25.46167 | 27066 ft | 281 kts | 101° |
| 2026-04-22 16:03 | 64.47537 | -25.41715 | 27067 ft | 281 kts | 101° |
| 2026-04-22 16:03 | 64.47194 | -25.37253 | 27071 ft | 281 kts | 101° |
| 2026-04-22 16:03 | 64.46858 | -25.32792 | 27065 ft | 281 kts | 101° |
| 2026-04-22 16:04 | 64.46526 | -25.28331 | 27068 ft | 281 kts | 101° |
| 2026-04-22 16:04 | 64.46199 | -25.23862 | 27071 ft | 281 kts | 101° |
| 2026-04-22 16:04 | 64.45875 | -25.19386 | 27066 ft | 281 kts | 101° |
| 2026-04-22 16:04 | 64.45559 | -25.14929 | 27069 ft | 281 kts | 100° |
| 2026-04-22 16:05 | 64.45351 | -25.11962 | 27066 ft | 281 kts | 100° |
| 2026-04-22 16:05 | 64.44943 | -25.06039 | 27068 ft | 281 kts | 100° |
| 2026-04-22 16:05 | 64.44640 | -25.01567 | 27062 ft | 281 kts | 100° |
| 2026-04-22 16:05 | 64.44341 | -24.97078 | 27011 ft | 283 kts | 100° |
| 2026-04-22 16:06 | 64.44042 | -24.92558 | 26943 ft | 285 kts | 100° |
| 2026-04-22 16:06 | 64.43744 | -24.88014 | 26867 ft | 286 kts | 100° |
| 2026-04-22 16:06 | 64.43445 | -24.83444 | 26785 ft | 287 kts | 100° |
| 2026-04-22 16:06 | 64.43146 | -24.78817 | 26709 ft | 288 kts | 100° |
| 2026-04-22 16:07 | 64.42847 | -24.74212 | 26635 ft | 289 kts | 100° |
| 2026-04-22 16:07 | 64.42550 | -24.69619 | 26559 ft | 289 kts | 100° |
| 2026-04-22 16:07 | 64.42167 | -24.65072 | 26487 ft | 287 kts | 112° |
| 2026-04-22 16:07 | 64.40946 | -24.61496 | 26435 ft | 288 kts | 146° |
| 2026-04-22 16:08 | 64.39044 | -24.60123 | 26363 ft | 294 kts | 177° |
| 2026-04-22 16:08 | 64.36990 | -24.60492 | 26285 ft | 298 kts | 185° |
| 2026-04-22 16:08 | 64.34933 | -24.61209 | 26182 ft | 299 kts | 187° |
| 2026-04-22 16:08 | 64.32877 | -24.62038 | 26109 ft | 300 kts | 188° |
| 2026-04-22 16:09 | 64.30823 | -24.62914 | 26037 ft | 300 kts | 188° |
| 2026-04-22 16:09 | 64.28768 | -24.63810 | 25966 ft | 301 kts | 188° |
| 2026-04-22 16:09 | 64.26714 | -24.64713 | 25888 ft | 301 kts | 188° |
| 2026-04-22 16:09 | 64.24652 | -24.65620 | 25815 ft | 301 kts | 188° |
| 2026-04-22 16:10 | 64.22589 | -24.66527 | 25724 ft | 303 kts | 188° |
| 2026-04-22 16:10 | 64.20517 | -24.67435 | 25625 ft | 304 kts | 188° |
| 2026-04-22 16:10 | 64.19135 | -24.68038 | 25557 ft | 304 kts | 188° |
| 2026-04-22 16:10 | 64.16329 | -24.69257 | 25269 ft | 310 kts | 188° |
| 2026-04-22 16:11 | 64.14189 | -24.70180 | 24999 ft | 315 kts | 188° |
| 2026-04-22 16:11 | 64.12025 | -24.71106 | 24711 ft | 319 kts | 188° |
| 2026-04-22 16:11 | 64.09830 | -24.72045 | 24421 ft | 322 kts | 188° |
| 2026-04-22 16:11 | 64.07607 | -24.72885 | 24142 ft | 322 kts | 180° |
| 2026-04-22 16:12 | 64.05460 | -24.71865 | 23817 ft | 317 kts | 150° |
| 2026-04-22 16:12 | 64.03846 | -24.68554 | 23483 ft | 312 kts | 121° |
| 2026-04-22 16:12 | 64.02890 | -24.64127 | 23133 ft | 312 kts | 112° |
| 2026-04-22 16:12 | 64.02075 | -24.59539 | 22735 ft | 313 kts | 111° |
| 2026-04-22 16:13 | 64.01302 | -24.54888 | 22332 ft | 314 kts | 110° |
| 2026-04-22 16:13 | 64.00546 | -24.50206 | 21936 ft | 314 kts | 110° |
| 2026-04-22 16:13 | 63.99798 | -24.45528 | 21540 ft | 315 kts | 110° |
| 2026-04-22 16:13 | 63.99054 | -24.40836 | 21160 ft | 314 kts | 110° |
| 2026-04-22 16:14 | 63.98315 | -24.36154 | 20782 ft | 314 kts | 110° |
| 2026-04-22 16:14 | 63.97577 | -24.31458 | 20409 ft | 314 kts | 110° |
| 2026-04-22 16:14 | 63.96843 | -24.26769 | 20033 ft | 314 kts | 110° |
| 2026-04-22 16:14 | 63.96115 | -24.22091 | 19667 ft | 314 kts | 109° |
| 2026-04-22 16:15 | 63.95397 | -24.17471 | 19313 ft | 314 kts | 110° |
| 2026-04-22 16:15 | 63.94671 | -24.12786 | 18951 ft | 314 kts | 110° |
| 2026-04-22 16:15 | 63.93937 | -24.08045 | 18561 ft | 314 kts | 110° |
| 2026-04-22 16:15 | 63.93211 | -24.03368 | 18151 ft | 314 kts | 110° |
| 2026-04-22 16:16 | 63.92484 | -23.98687 | 17756 ft | 313 kts | 110° |
| 2026-04-22 16:16 | 63.91758 | -23.94031 | 17351 ft | 313 kts | 110° |
| 2026-04-22 16:16 | 63.91032 | -23.89458 | 16960 ft | 300 kts | 110° |
| 2026-04-22 16:16 | 63.90343 | -23.85149 | 16581 ft | 289 kts | 109° |
| 2026-04-22 16:17 | 63.89670 | -23.80860 | 16191 ft | 281 kts | 109° |
| 2026-04-22 16:17 | 63.89118 | -23.77316 | 15859 ft | 277 kts | 109° |
| 2026-04-22 16:17 | 63.88482 | -23.73214 | 15457 ft | 274 kts | 109° |
| 2026-04-22 16:17 | 63.88064 | -23.70517 | 15220 ft | 272 kts | 109° |
| 2026-04-22 16:18 | 63.87438 | -23.66494 | 14833 ft | 270 kts | 109° |
| 2026-04-22 16:18 | 63.86812 | -23.62490 | 14447 ft | 269 kts | 109° |
| 2026-04-22 16:18 | 63.86187 | -23.58497 | 14028 ft | 268 kts | 109° |
| 2026-04-22 16:18 | 63.85563 | -23.54511 | 13605 ft | 268 kts | 109° |
| 2026-04-22 16:19 | 63.84939 | -23.50542 | 13180 ft | 267 kts | 109° |
| 2026-04-22 16:19 | 63.84316 | -23.46589 | 12758 ft | 266 kts | 109° |
| 2026-04-22 16:19 | 63.83692 | -23.42638 | 12353 ft | 266 kts | 109° |
| 2026-04-22 16:19 | 63.83070 | -23.38705 | 11937 ft | 265 kts | 109° |
| 2026-04-22 16:20 | 63.82449 | -23.34780 | 11545 ft | 265 kts | 109° |
| 2026-04-22 16:20 | 63.81831 | -23.30886 | 11154 ft | 264 kts | 109° |
| 2026-04-22 16:20 | 63.81240 | -23.27168 | 10781 ft | 264 kts | 109° |
| 2026-04-22 16:20 | 63.80617 | -23.23248 | 10389 ft | 264 kts | 109° |
| 2026-04-22 16:21 | 63.79996 | -23.19347 | 9965 ft | 264 kts | 109° |
| 2026-04-22 16:21 | 63.79373 | -23.15448 | 9540 ft | 263 kts | 109° |
| 2026-04-22 16:21 | 63.78751 | -23.11566 | 9125 ft | 262 kts | 110° |
| 2026-04-22 16:21 | 63.78130 | -23.07688 | 8711 ft | 262 kts | 110° |
| 2026-04-22 16:22 | 63.76907 | -22.99962 | 7908 ft | 260 kts | 107° |
| 2026-04-22 16:22 | 63.76759 | -22.95948 | 7512 ft | 257 kts | 76° |
| 2026-04-22 16:22 | 63.77341 | -22.92154 | 7118 ft | 255 kts | 67° |
| 2026-04-22 16:23 | 63.78707 | -22.84937 | 6327 ft | 227 kts | 64° |
| 2026-04-22 16:23 | 63.79298 | -22.81917 | 5906 ft | 196 kts | 63° |
| 2026-04-22 16:23 | 63.79826 | -22.79192 | 5505 ft | 184 kts | 63° |
| 2026-04-22 16:24 | 63.80326 | -22.76589 | 5058 ft | 180 kts | 63° |
| 2026-04-22 16:24 | 63.81300 | -22.71395 | 4160 ft | 178 kts | 63° |
| 2026-04-22 16:24 | 63.81773 | -22.68817 | 3739 ft | 176 kts | 63° |
| 2026-04-22 16:25 | 63.82237 | -22.66256 | 3378 ft | 173 kts | 63° |
| 2026-04-22 16:25 | 63.83146 | -22.61535 | 3141 ft | 154 kts | 56° |
| 2026-04-22 16:25 | 63.83657 | -22.59486 | 3099 ft | 149 kts | 54° |
| 2026-04-22 16:26 | 63.84190 | -22.57518 | 3090 ft | 144 kts | 45° |
| 2026-04-22 16:26 | 63.85026 | -22.56814 | 3086 ft | 130 kts | 344° |
| 2026-04-22 16:26 | 63.85745 | -22.57938 | 3086 ft | 127 kts | 306° |
| 2026-04-22 16:26 | 63.86113 | -22.59751 | 3052 ft | 129 kts | 310° |
| 2026-04-22 16:27 | 63.86815 | -22.60980 | 3126 ft | 125 kts | 329° |
| 2026-04-22 16:27 | 63.87581 | -22.61767 | 3237 ft | 123 kts | 339° |
| 2026-04-22 16:27 | 63.88459 | -22.62194 | 3086 ft | 136 kts | 352° |
| 2026-04-22 16:27 | 63.89431 | -22.62402 | 2888 ft | 141 kts | 353° |
| 2026-04-22 16:28 | 63.90374 | -22.62276 | 2879 ft | 139 kts | 8° |
| 2026-04-22 16:28 | 63.91348 | -22.61659 | 2593 ft | 150 kts | 12° |
| 2026-04-22 16:28 | 63.92406 | -22.61120 | 2005 ft | 162 kts | 8° |
| 2026-04-22 16:28 | 63.93523 | -22.60561 | 1318 ft | 168 kts | 8° |
| 2026-04-22 16:29 | 63.94681 | -22.60349 | 829 ft | 163 kts | 358° |
| 2026-04-22 16:29 | 63.95800 | -22.60478 | 367 ft | 157 kts | 354° |
| 2026-04-22 16:29 | 63.96861 | -22.60487 | 165 ft | 147 kts | 358° |
| 2026-04-22 16:29 | 63.97854 | -22.60514 | 156 ft | 137 kts | 353° |
| 2026-04-22 16:30 | 63.98422 | -22.60550 | 163 ft | 122 kts | 1° |
| 2026-04-22 16:30 | 63.99356 | -22.60396 | 162 ft | 72 kts | 28° |
| 2026-04-22 16:30 | 63.99462 | -22.60409 | 145 ft | 21 kts | 223° |
| 2026-04-22 16:30 | 63.99377 | -22.60562 | 157 ft | 0 kts | 201° |
| 2026-04-22 16:31 | 63.99365 | -22.60568 | 161 ft | 8 kts | 180° |
| 2026-04-22 16:31 | 63.99227 | -22.60508 | 167 ft | 17 kts | 174° |
| 2026-04-22 16:32 | 63.99170 | -22.60382 | 170 ft | 20 kts | 74° |
| 2026-04-22 16:32 | 63.99174 | -22.60316 | 171 ft | 0 kts | 94° |
| 2026-04-22 16:33 | 63.99173 | -22.60281 | 171 ft | 14 kts | 93° |
| 2026-04-22 16:33 | 63.99149 | -22.59999 | 170 ft | 28 kts | 138° |
| 2026-04-22 16:34 | 63.99075 | -22.59822 | 167 ft | 10 kts | 130° |
| 2026-04-22 16:34 | 63.98947 | -22.59533 | 172 ft | 39 kts | 136° |
| 2026-04-22 16:34 | 63.98816 | -22.59360 | 170 ft | 26 kts | 181° |
| 2026-04-22 16:34 | 63.98663 | -22.59305 | 174 ft | 19 kts | 178° |
| 2026-04-22 16:35 | 63.98502 | -22.59313 | 171 ft | 28 kts | 176° |
| 2026-04-22 16:35 | 63.98370 | -22.59190 | 170 ft | 8 kts | 156° |
| 2026-04-22 16:35 | 63.98236 | -22.59076 | 171 ft | 19 kts | 155° |
| 2026-04-22 16:35 | 63.98138 | -22.58951 | 169 ft | 10 kts | 122° |
| 2026-04-22 16:36 | 63.98177 | -22.58864 | 169 ft | 6 kts | 355° |
| 2026-04-22 16:36 | 63.98199 | -22.58863 | 169 ft | 0 kts | 360° |